createdAt,value
2023-04-26T00:00:55.467Z,4.65
2023-04-26T00:03:22.585Z,5.07
2023-04-26T00:05:49.427Z,4.20
2023-04-26T00:08:16.032Z,4.75
2023-04-26T00:10:42.756Z,6.05
2023-04-26T00:13:09.213Z,4.85
2023-04-26T00:15:35.806Z,4.95
2023-04-26T00:18:02.365Z,5.50
2023-04-26T00:20:29.001Z,5.03
2023-04-26T00:22:56.517Z,4.43
2023-04-26T00:25:22.945Z,5.20
2023-04-26T00:27:50.398Z,6.43
2023-04-26T00:30:16.905Z,4.00
2023-04-26T00:32:43.327Z,5.43
2023-04-26T00:35:09.884Z,5.45
2023-04-26T00:37:36.342Z,5.47
2023-04-26T00:40:05.101Z,5.05
2023-04-26T00:42:31.545Z,5.80
2023-04-26T00:44:58.066Z,6.20
2023-04-26T00:47:29.571Z,5.05
2023-04-26T00:49:56.268Z,4.63
2023-04-26T00:52:22.816Z,4.47
2023-04-26T00:54:49.639Z,5.13
2023-04-26T00:57:16.220Z,5.22
2023-04-26T00:59:42.806Z,5.68
2023-04-26T01:02:09.443Z,5.05
2023-04-26T01:04:37.382Z,5.25
2023-04-26T01:07:04.089Z,4.85
2023-04-26T01:09:31.871Z,5.18
2023-04-26T01:11:58.710Z,5.10
2023-04-26T01:14:25.201Z,5.88
2023-04-26T01:16:52.532Z,5.40
2023-04-26T01:19:19.256Z,5.53
2023-04-26T01:21:45.783Z,5.13
2023-04-26T01:24:12.923Z,5.97
2023-04-26T01:26:45.607Z,5.78
2023-04-26T01:29:15.674Z,5.30
2023-04-26T01:31:42.752Z,5.73
2023-04-26T01:34:09.278Z,6.07
2023-04-26T01:36:35.773Z,6.32
2023-04-26T01:39:02.276Z,5.97
2023-04-26T01:41:28.799Z,6.10
2023-04-26T01:43:55.726Z,6.77
2023-04-26T01:46:22.498Z,5.68
2023-04-26T01:48:49.156Z,6.25
2023-04-26T01:51:16.614Z,6.97
2023-04-26T01:53:43.214Z,6.60
2023-04-26T01:56:10.284Z,6.20
2023-04-26T01:58:36.784Z,5.85
2023-04-26T02:01:07.775Z,6.10
2023-04-26T02:03:34.776Z,6.40
2023-04-26T02:06:01.307Z,7.45
2023-04-26T02:08:27.845Z,6.83
2023-04-26T02:10:54.383Z,6.30
2023-04-26T02:13:20.767Z,6.93
2023-04-26T02:15:47.415Z,6.22
2023-04-26T02:18:13.923Z,5.95
2023-04-26T02:20:44.294Z,6.10
2023-04-26T02:23:10.858Z,5.90
2023-04-26T02:25:37.625Z,5.78
2023-04-26T02:28:04.727Z,6.60
2023-04-26T02:30:31.687Z,8.75
2023-04-26T02:32:58.297Z,8.47
2023-04-26T02:35:24.906Z,6.30
2023-04-26T02:37:52.368Z,6.35
2023-04-26T02:40:20.479Z,6.60
2023-04-26T02:42:47.599Z,6.72
2023-04-26T02:45:14.554Z,6.80
2023-04-26T02:47:41.064Z,7.35
2023-04-26T02:50:08.219Z,6.60
2023-04-26T02:52:35.356Z,7.25
2023-04-26T02:55:02.414Z,7.00
2023-04-26T02:57:28.832Z,7.97
2023-04-26T02:59:55.692Z,6.50
2023-04-26T03:02:24.824Z,8.07
2023-04-26T03:04:51.759Z,7.13
2023-04-26T03:07:18.170Z,7.60
2023-04-26T03:09:44.547Z,7.10
2023-04-26T03:12:11.129Z,8.45
2023-04-26T03:14:37.820Z,7.57
2023-04-26T03:17:04.190Z,6.78
2023-04-26T03:19:30.633Z,8.10
2023-04-26T03:21:57.119Z,6.80
2023-04-26T03:24:23.810Z,6.70
2023-04-26T03:26:50.214Z,7.90
2023-04-26T03:29:17.224Z,6.70
2023-04-26T03:31:43.751Z,7.65
2023-04-26T03:34:10.364Z,8.17
2023-04-26T03:36:36.885Z,7.32
2023-04-26T03:39:04.189Z,8.50
2023-04-26T03:41:30.686Z,9.20
2023-04-26T03:43:57.728Z,7.13
2023-04-26T03:46:24.317Z,8.00
2023-04-26T03:48:51.535Z,9.45
2023-04-26T03:51:18.266Z,7.40
2023-04-26T03:53:46.829Z,7.55
2023-04-26T03:56:13.273Z,9.43
2023-04-26T03:58:39.833Z,7.90
2023-04-26T04:01:06.297Z,7.30
2023-04-26T04:03:32.939Z,7.90
2023-04-26T04:05:59.572Z,7.68
2023-04-26T04:08:26.147Z,7.25
2023-04-26T04:10:52.566Z,7.43
2023-04-26T04:13:18.974Z,8.73
2023-04-26T04:15:45.659Z,8.27
2023-04-26T04:18:12.302Z,7.55
2023-04-26T04:20:39.026Z,7.03
2023-04-26T04:23:07.874Z,14.83
2023-04-26T04:25:35.021Z,7.03
2023-04-26T04:28:02.837Z,8.70
2023-04-26T04:30:29.698Z,7.03
2023-04-26T04:32:58.933Z,7.47
2023-04-26T04:35:28.922Z,7.27
2023-04-26T04:37:57.097Z,7.57
2023-04-26T04:40:24.153Z,7.63
2023-04-26T04:42:51.002Z,11.18
2023-04-26T04:45:17.665Z,7.18
2023-04-26T04:47:45.435Z,9.37
2023-04-26T04:50:12.103Z,8.95
2023-04-26T04:52:38.642Z,8.80
2023-04-26T04:55:05.285Z,7.68
2023-04-26T04:57:32.521Z,6.65
2023-04-26T04:59:59.161Z,8.10
2023-04-26T05:02:25.856Z,7.78
2023-04-26T05:04:52.715Z,8.85
2023-04-26T05:07:19.348Z,7.43
2023-04-26T05:09:45.941Z,7.45
2023-04-26T05:12:12.645Z,9.30
2023-04-26T05:14:40.847Z,9.40
2023-04-26T05:17:07.360Z,9.25
2023-04-26T05:19:33.805Z,7.90
2023-04-26T05:22:00.218Z,10.10
2023-04-26T05:24:29.501Z,9.60
2023-04-26T05:26:56.297Z,7.80
2023-04-26T05:29:22.834Z,7.75
2023-04-26T05:31:49.413Z,9.02
2023-04-26T05:34:16.198Z,7.72
2023-04-26T05:36:42.822Z,7.90
2023-04-26T05:39:09.312Z,8.43
2023-04-26T05:41:35.800Z,10.65
2023-04-26T05:44:02.359Z,8.23
2023-04-26T05:46:28.973Z,6.93
2023-04-26T05:48:55.443Z,7.72
2023-04-26T05:51:21.859Z,9.50
2023-04-26T05:53:48.394Z,8.10
2023-04-26T05:56:14.876Z,12.38
2023-04-26T05:58:41.766Z,10.93
2023-04-26T06:01:08.886Z,7.22
2023-04-26T06:03:35.720Z,7.63
2023-04-26T06:06:02.498Z,6.35
2023-04-26T06:08:29.055Z,8.02
2023-04-26T06:10:55.526Z,7.80
2023-04-26T06:13:22.012Z,7.07
2023-04-26T06:15:48.557Z,10.50
2023-04-26T06:18:15.063Z,7.57
2023-04-26T06:20:41.569Z,7.07
2023-04-26T06:23:07.996Z,9.00
2023-04-26T06:25:34.409Z,7.18
2023-04-26T06:28:01.006Z,6.85
2023-04-26T06:30:27.646Z,5.97
2023-04-26T06:32:54.270Z,6.10
2023-04-26T06:35:23.327Z,7.65
2023-04-26T06:37:49.869Z,7.05
2023-04-26T06:40:16.560Z,7.68
2023-04-26T06:42:43.504Z,7.38
2023-04-26T06:45:10.345Z,9.18
2023-04-26T06:47:36.968Z,5.90
2023-04-26T06:50:04.778Z,9.07
2023-04-26T06:52:31.433Z,6.10
2023-04-26T06:55:01.097Z,7.03
2023-04-26T06:57:27.580Z,19.13
2023-04-26T06:59:54.121Z,6.00
2023-04-26T07:02:20.727Z,5.78
2023-04-26T07:04:47.616Z,5.85
2023-04-26T07:07:15.531Z,5.80
2023-04-26T07:09:42.135Z,5.95
2023-04-26T07:12:11.021Z,5.15
2023-04-26T07:14:40.687Z,5.72
2023-04-26T07:17:07.620Z,6.38
2023-04-26T07:19:34.054Z,6.07
2023-04-26T07:22:01.353Z,5.35
2023-04-26T07:24:27.952Z,6.10
2023-04-26T07:26:54.503Z,5.72
2023-04-26T07:29:21.405Z,5.90
2023-04-26T07:31:47.994Z,5.35
2023-04-26T07:34:14.475Z,5.35
2023-04-26T07:36:40.947Z,7.28
2023-04-26T07:39:10.128Z,5.65
2023-04-26T07:41:36.703Z,5.38
2023-04-26T07:44:03.264Z,6.03
2023-04-26T07:46:29.789Z,4.28
2023-04-26T07:48:56.522Z,5.80
2023-04-26T07:51:23.020Z,5.28
2023-04-26T07:53:49.451Z,5.75
2023-04-26T07:56:15.920Z,4.75
2023-04-26T07:58:42.352Z,5.80
2023-04-26T08:01:09.834Z,4.63
2023-04-26T08:03:36.524Z,5.47
2023-04-26T08:06:03.722Z,5.15
2023-04-26T08:08:30.717Z,4.57
2023-04-26T08:10:57.214Z,7.88
2023-04-26T08:13:24.117Z,5.00
2023-04-26T08:15:51.278Z,3.70
2023-04-26T08:18:17.681Z,3.13
2023-04-26T08:20:44.232Z,3.25
2023-04-26T08:23:10.870Z,12.02
2023-04-26T08:25:37.555Z,3.38
2023-04-26T08:28:04.484Z,3.10
2023-04-26T08:30:31.181Z,2.83
2023-04-26T08:32:57.711Z,2.45
2023-04-26T08:35:24.153Z,6.00
2023-04-26T08:37:51.704Z,3.15
2023-04-26T08:40:22.420Z,2.90
2023-04-26T08:42:49.250Z,2.40
2023-04-26T08:45:16.371Z,4.25
2023-04-26T08:47:48.451Z,3.03
2023-04-26T08:50:15.687Z,2.45
2023-04-26T08:52:43.109Z,2.28
2023-04-26T08:55:10.766Z,3.22
2023-04-26T08:57:37.635Z,2.78
2023-04-26T09:00:05.927Z,2.20
2023-04-26T09:02:32.904Z,1.95
2023-04-26T09:04:59.599Z,3.00
2023-04-26T09:07:29.185Z,1.70
2023-04-26T09:09:57.673Z,4.45
2023-04-26T09:12:24.524Z,2.70
2023-04-26T09:14:51.443Z,2.60
2023-04-26T09:17:27.112Z,1.65
2023-04-26T09:19:53.977Z,1.70
2023-04-26T09:22:30.183Z,2.53
2023-04-26T09:24:56.674Z,1.80
2023-04-26T09:27:31.592Z,2.88
2023-04-26T09:30:05.478Z,4.05
2023-04-26T09:32:52.318Z,1.90
2023-04-26T09:35:21.612Z,1.65
2023-04-26T09:38:10.972Z,2.50
2023-04-26T09:40:43.339Z,4.18
2023-04-26T09:43:14.219Z,4.35
2023-04-26T09:45:50.362Z,1.97
2023-04-26T09:48:17.208Z,2.53
2023-04-26T09:50:47.364Z,2.30
2023-04-26T09:53:29.264Z,3.10
2023-04-26T09:55:56.370Z,2.35
2023-04-26T09:58:25.976Z,2.97
2023-04-26T10:00:52.727Z,6.00
2023-04-26T10:03:21.099Z,2.92
2023-04-26T10:05:48.101Z,4.68
2023-04-26T10:08:14.795Z,3.10
2023-04-26T10:10:42.081Z,2.43
2023-04-26T10:13:08.578Z,2.78
2023-04-26T10:15:35.831Z,2.53
2023-04-26T10:18:02.357Z,4.43
2023-04-26T10:20:29.565Z,5.28
2023-04-26T10:23:01.293Z,4.00
2023-04-26T10:25:37.492Z,3.22
2023-04-26T10:28:04.443Z,3.65
2023-04-26T10:30:32.175Z,2.75
2023-04-26T10:32:58.712Z,5.25
2023-04-26T10:35:26.278Z,3.07
2023-04-26T10:38:01.722Z,4.53
2023-04-26T10:40:29.838Z,2.95
2023-04-26T10:43:08.717Z,2.10
2023-04-26T10:45:36.139Z,2.33
2023-04-26T10:48:18.920Z,3.87
2023-04-26T10:51:13.194Z,2.67
2023-04-26T10:53:39.761Z,2.90
2023-04-26T10:56:07.073Z,3.15
2023-04-26T10:58:34.414Z,2.47
2023-04-26T11:01:04.992Z,3.20
2023-04-26T11:03:31.912Z,4.75
2023-04-26T11:05:58.705Z,3.10
2023-04-26T11:08:25.574Z,3.35
2023-04-26T11:10:56.743Z,5.82
2023-04-26T11:13:24.447Z,1.90
2023-04-26T11:15:54.578Z,2.58
2023-04-26T11:18:21.535Z,3.30
2023-04-26T11:20:48.070Z,3.63
2023-04-26T11:23:14.670Z,3.78
2023-04-26T11:25:41.552Z,2.80
2023-04-26T11:28:08.199Z,3.42
2023-04-26T11:30:34.699Z,2.67
2023-04-26T11:33:02.830Z,2.72
2023-04-26T11:35:29.979Z,5.95
2023-04-26T11:38:00.739Z,3.83
2023-04-26T11:40:28.023Z,2.80
2023-04-26T11:42:54.675Z,2.90
2023-04-26T11:45:21.576Z,3.88
2023-04-26T11:47:48.105Z,3.10
2023-04-26T11:50:14.764Z,3.13
2023-04-26T11:52:41.793Z,2.15
2023-04-26T11:55:10.348Z,5.70
2023-04-26T11:57:36.980Z,3.70
2023-04-26T12:00:11.431Z,6.00
2023-04-26T12:02:38.197Z,2.97
2023-04-26T12:05:05.026Z,3.90
2023-04-26T12:07:37.993Z,3.17
2023-04-26T12:10:17.388Z,6.35
2023-04-26T12:12:44.940Z,3.17
2023-04-26T12:15:13.819Z,2.83
2023-04-26T12:17:51.215Z,4.45
2023-04-26T12:20:17.934Z,2.90
2023-04-26T12:23:04.934Z,2.42
2023-04-26T12:25:32.277Z,3.38
2023-04-26T12:27:58.945Z,2.50
2023-04-26T12:30:26.301Z,4.30
2023-04-26T12:32:52.858Z,3.25
2023-04-26T12:35:19.422Z,3.90
2023-04-26T12:37:46.215Z,5.05
2023-04-26T12:40:12.897Z,3.20
2023-04-26T12:42:39.468Z,3.33
2023-04-26T12:45:06.227Z,3.33
2023-04-26T12:47:32.785Z,6.50
2023-04-26T12:50:01.130Z,4.93
2023-04-26T12:52:28.243Z,3.23
2023-04-26T12:54:54.707Z,3.60
2023-04-26T12:57:21.925Z,3.40
2023-04-26T12:59:48.378Z,3.72
2023-04-26T13:02:14.862Z,4.75
2023-04-26T13:04:41.989Z,4.73
2023-04-26T13:07:08.922Z,3.33
2023-04-26T13:09:35.394Z,3.80
2023-04-26T13:12:01.835Z,10.88
2023-04-26T13:14:28.437Z,4.90
2023-04-26T13:16:54.932Z,5.03
2023-04-26T13:19:21.906Z,4.90
2023-04-26T13:21:48.521Z,3.60
2023-04-26T13:24:15.024Z,4.38
2023-04-26T13:26:41.681Z,4.82
2023-04-26T13:29:08.742Z,5.53
2023-04-26T13:31:36.945Z,4.80
2023-04-26T13:34:03.539Z,3.80
2023-04-26T13:36:30.109Z,7.72
2023-04-26T13:38:56.582Z,5.53
2023-04-26T13:41:23.915Z,4.87
2023-04-26T13:43:50.482Z,4.07
2023-04-26T13:46:16.956Z,6.15
2023-04-26T13:48:43.573Z,4.95
2023-04-26T13:51:11.552Z,5.50
2023-04-26T13:53:38.135Z,5.20
2023-04-26T13:56:04.850Z,17.00
2023-04-26T13:58:31.242Z,4.63
2023-04-26T14:00:57.726Z,3.63
2023-04-26T14:03:24.437Z,3.72
2023-04-26T14:05:50.995Z,7.60
2023-04-26T14:08:17.599Z,4.18
2023-04-26T14:10:44.293Z,4.13
2023-04-26T14:13:10.893Z,5.03
2023-04-26T14:15:37.526Z,4.57
2023-04-26T14:18:04.107Z,5.40
2023-04-26T14:20:30.681Z,5.50
2023-04-26T14:22:57.159Z,4.75
2023-04-26T14:25:23.713Z,5.03
2023-04-26T14:27:51.854Z,3.92
2023-04-26T14:30:19.848Z,3.90
2023-04-26T14:32:46.554Z,3.65
2023-04-26T14:35:12.993Z,6.00
2023-04-26T14:37:39.601Z,4.28
2023-04-26T14:40:08.091Z,8.82
2023-04-26T14:42:34.577Z,4.97
2023-04-26T14:45:01.207Z,4.88
2023-04-26T14:47:27.872Z,4.35
2023-04-26T14:49:54.520Z,4.40
2023-04-26T14:52:21.573Z,5.05
2023-04-26T14:54:48.004Z,6.03
2023-04-26T14:57:14.463Z,4.53
2023-04-26T14:59:40.988Z,5.18
2023-04-26T15:02:07.577Z,4.32
2023-04-26T15:04:34.348Z,4.53
2023-04-26T15:07:00.863Z,4.70
2023-04-26T15:09:29.704Z,4.20
2023-04-26T15:11:56.958Z,4.13
2023-04-26T15:14:23.568Z,4.22
2023-04-26T15:16:50.046Z,6.53
2023-04-26T15:19:16.863Z,4.80
2023-04-26T15:21:43.276Z,3.92
2023-04-26T15:24:09.860Z,6.03
2023-04-26T15:26:36.454Z,4.95
2023-04-26T15:29:02.867Z,4.22
2023-04-26T15:31:29.399Z,5.50
2023-04-26T15:33:58.719Z,4.63
2023-04-26T15:36:25.258Z,4.85
2023-04-26T15:38:52.005Z,3.13
2023-04-26T15:41:18.482Z,5.00
2023-04-26T15:43:45.016Z,7.03
2023-04-26T15:46:15.085Z,4.38
2023-04-26T15:48:41.619Z,3.40
2023-04-26T15:51:08.158Z,4.82
2023-04-26T15:53:34.677Z,5.00
2023-04-26T15:56:01.380Z,4.13
2023-04-26T15:58:27.852Z,3.47
2023-04-26T16:00:54.301Z,2.90
2023-04-26T16:03:21.618Z,2.42
2023-04-26T16:05:48.521Z,2.40
2023-04-26T16:08:19.457Z,3.13
2023-04-26T16:10:58.559Z,2.60
2023-04-26T16:13:25.049Z,6.07
2023-04-26T16:15:52.439Z,3.83
2023-04-26T16:18:20.852Z,3.75
2023-04-26T16:20:47.777Z,2.67
2023-04-26T16:23:14.315Z,2.80
2023-04-26T16:25:41.278Z,4.55
2023-04-26T16:28:11.768Z,2.80
2023-04-26T16:30:38.657Z,4.97
2023-04-26T16:33:10.097Z,4.97
2023-04-26T16:35:36.891Z,4.05
2023-04-26T16:38:03.385Z,5.38
2023-04-26T16:40:29.981Z,4.90
2023-04-26T16:42:56.619Z,4.05
2023-04-26T16:45:23.108Z,4.30
2023-04-26T16:47:49.826Z,2.75
2023-04-26T16:50:16.347Z,3.67
2023-04-26T16:52:43.068Z,3.22
2023-04-26T16:55:09.970Z,3.90
2023-04-26T16:57:36.449Z,3.10
2023-04-26T17:00:04.828Z,3.38
2023-04-26T17:02:31.968Z,3.38
2023-04-26T17:04:58.608Z,3.70
2023-04-26T17:07:25.389Z,2.95
2023-04-26T17:09:55.468Z,2.80
2023-04-26T17:12:22.151Z,4.03
2023-04-26T17:14:48.575Z,2.40
2023-04-26T17:17:15.079Z,2.03
2023-04-26T17:19:42.009Z,2.15
2023-04-26T17:22:08.703Z,2.43
2023-04-26T17:24:35.243Z,2.60
2023-04-26T17:27:02.872Z,2.55
2023-04-26T17:29:29.254Z,3.05
2023-04-26T17:31:55.738Z,3.83
2023-04-26T17:34:22.898Z,2.97
2023-04-26T17:36:49.385Z,3.00
2023-04-26T17:39:17.542Z,2.45
2023-04-26T17:41:44.095Z,2.20
2023-04-26T17:44:10.981Z,3.13
2023-04-26T17:46:37.555Z,3.47
2023-04-26T17:49:03.990Z,2.40
2023-04-26T17:51:30.609Z,5.90
2023-04-26T17:53:57.105Z,3.20
2023-04-26T17:56:23.639Z,3.22
2023-04-26T17:58:50.251Z,2.30
2023-04-26T18:01:16.910Z,3.25
2023-04-26T18:03:44.034Z,2.40
2023-04-26T18:06:10.723Z,2.10
2023-04-26T18:08:37.561Z,2.70
2023-04-26T18:11:04.100Z,2.90
2023-04-26T18:13:30.757Z,2.45
2023-04-26T18:15:57.327Z,3.05
2023-04-26T18:18:26.423Z,3.78
2023-04-26T18:20:54.233Z,2.60
2023-04-26T18:23:21.566Z,2.20
2023-04-26T18:25:50.460Z,2.30
2023-04-26T18:28:16.913Z,4.15
2023-04-26T18:30:43.443Z,2.50
2023-04-26T18:33:10.547Z,3.47
2023-04-26T18:35:37.330Z,1.90
2023-04-26T18:38:04.131Z,3.03
2023-04-26T18:40:30.625Z,3.03
2023-04-26T18:42:57.394Z,3.13
2023-04-26T18:45:24.135Z,5.38
2023-04-26T18:47:52.510Z,2.73
2023-04-26T18:50:21.035Z,2.92
2023-04-26T18:52:47.600Z,3.03
2023-04-26T18:55:14.166Z,3.50
2023-04-26T18:57:40.705Z,2.63
2023-04-26T19:00:08.393Z,2.50
2023-04-26T19:02:36.488Z,2.83
2023-04-26T19:05:04.668Z,2.80
2023-04-26T19:07:31.344Z,3.85
2023-04-26T19:10:00.575Z,2.95
2023-04-26T19:12:27.604Z,3.70
2023-04-26T19:14:54.380Z,2.53
2023-04-26T19:17:20.891Z,3.08
2023-04-26T19:19:47.661Z,2.95
2023-04-26T19:22:14.236Z,2.70
2023-04-26T19:24:40.725Z,2.50
2023-04-26T19:27:07.283Z,2.65
2023-04-26T19:29:33.715Z,3.50
2023-04-26T19:32:00.611Z,3.40
2023-04-26T19:34:27.116Z,3.22
2023-04-26T19:36:53.750Z,2.38
2023-04-26T19:39:23.276Z,2.50
2023-04-26T19:41:50.088Z,3.53
2023-04-26T19:44:16.904Z,2.88
2023-04-26T19:46:43.427Z,3.60
2023-04-26T19:49:09.860Z,3.13
2023-04-26T19:51:36.357Z,3.05
2023-04-26T19:54:02.865Z,3.20
2023-04-26T19:56:29.315Z,3.50
2023-04-26T19:58:55.974Z,6.38
2023-04-26T20:01:22.572Z,6.07
2023-04-26T20:03:49.429Z,3.17
2023-04-26T20:06:15.982Z,3.40
2023-04-26T20:08:42.550Z,3.33
2023-04-26T20:11:14.728Z,3.90
2023-04-26T20:13:42.696Z,3.15
2023-04-26T20:16:09.523Z,3.00
2023-04-26T20:18:36.415Z,2.97
2023-04-26T20:21:03.232Z,3.72
2023-04-26T20:23:29.701Z,4.20
2023-04-26T20:25:56.180Z,4.10
2023-04-26T20:28:24.465Z,3.83
2023-04-26T20:30:50.993Z,3.83
2023-04-26T20:33:17.736Z,4.15
2023-04-26T20:35:44.475Z,3.47
2023-04-26T20:38:10.977Z,3.03
2023-04-26T20:40:37.792Z,3.60
2023-04-26T20:43:04.178Z,3.35
2023-04-26T20:45:30.584Z,3.25
2023-04-26T20:47:57.166Z,4.25
2023-04-26T20:50:23.729Z,3.53
2023-04-26T20:52:50.770Z,4.00
2023-04-26T20:55:17.274Z,5.75
2023-04-26T20:57:43.738Z,3.45
2023-04-26T21:00:10.788Z,3.60
2023-04-26T21:02:38.002Z,3.70
2023-04-26T21:05:05.048Z,4.32
2023-04-26T21:07:32.078Z,3.90
2023-04-26T21:09:58.615Z,3.95
2023-04-26T21:12:25.124Z,4.03
2023-04-26T21:14:51.668Z,3.70
2023-04-26T21:17:18.373Z,4.38
2023-04-26T21:19:44.818Z,4.05
2023-04-26T21:22:11.968Z,4.57
2023-04-26T21:24:38.372Z,4.55
2023-04-26T21:27:04.916Z,4.10
2023-04-26T21:29:34.366Z,3.78
2023-04-26T21:32:00.875Z,3.38
2023-04-26T21:34:27.433Z,4.45
2023-04-26T21:36:56.243Z,3.80
2023-04-26T21:39:22.717Z,4.75
2023-04-26T21:41:49.171Z,5.03
2023-04-26T21:44:15.805Z,3.92
2023-04-26T21:46:42.381Z,3.63
2023-04-26T21:49:10.335Z,3.72
2023-04-26T21:51:37.168Z,4.40
2023-04-26T21:54:03.701Z,4.55
2023-04-26T21:56:30.140Z,4.38
2023-04-26T21:58:56.647Z,3.88
2023-04-26T22:01:23.230Z,4.53
2023-04-26T22:03:50.049Z,3.83
2023-04-26T22:06:16.707Z,4.13
2023-04-26T22:08:43.193Z,4.07
2023-04-26T22:11:09.765Z,5.10
2023-04-26T22:13:36.206Z,5.10
2023-04-26T22:16:02.722Z,5.13
2023-04-26T22:18:29.451Z,5.40
2023-04-26T22:20:56.210Z,5.20
2023-04-26T22:23:22.712Z,4.63
2023-04-26T22:25:49.273Z,4.90
2023-04-26T22:28:15.986Z,5.40
2023-04-26T22:30:42.408Z,5.13
2023-04-26T22:33:11.019Z,5.30
2023-04-26T22:35:37.746Z,4.40
2023-04-26T22:38:04.240Z,4.60
2023-04-26T22:40:32.163Z,4.70
2023-04-26T22:42:58.688Z,4.63
2023-04-26T22:45:25.949Z,4.85
2023-04-26T22:47:52.526Z,4.70
2023-04-26T22:50:19.333Z,5.18
2023-04-26T22:52:45.914Z,4.45
2023-04-26T22:55:12.326Z,4.53
2023-04-26T22:57:38.752Z,4.57
2023-04-26T23:00:05.971Z,5.03
2023-04-26T23:02:32.574Z,4.97
2023-04-26T23:04:59.159Z,5.47
2023-04-26T23:07:25.748Z,4.25
2023-04-26T23:09:52.219Z,4.47
2023-04-26T23:12:20.131Z,4.15
2023-04-26T23:14:47.936Z,8.88
2023-04-26T23:17:14.490Z,4.57
2023-04-26T23:19:41.202Z,4.45
2023-04-26T23:22:07.809Z,4.35
2023-04-26T23:24:34.204Z,4.47
2023-04-26T23:27:01.237Z,4.10
2023-04-26T23:29:27.851Z,5.40
2023-04-26T23:31:54.329Z,4.38
2023-04-26T23:34:20.850Z,3.75
2023-04-26T23:36:47.262Z,4.20
2023-04-26T23:39:13.761Z,4.43
2023-04-26T23:41:40.753Z,4.57
2023-04-26T23:44:07.384Z,4.50
2023-04-26T23:46:33.934Z,4.53
2023-04-26T23:49:00.561Z,4.38
2023-04-26T23:51:27.619Z,4.15
2023-04-26T23:53:54.114Z,4.45
2023-04-26T23:56:20.592Z,4.10
2023-04-26T23:58:47.096Z,3.92
